Inkster, Michigan
Current Conditions -  °F | °C
As of 5:53 PM on Thursday 23 Oct 2014 (Local Time) from KDTW Reporting Station
Scattered Clouds Scattered Clouds  
Wind Chill: 57°   Ceiling: Unl
Heat Index: 57°   Visibility: 10mi
Dew Point: 38°   Wind: 5mph
Humidity: 49%   Direction: 260°W
Pressure: 30.13"   Gusts: NA
Location:  42.3°N, 83.31°W
Report Text: KDTW 232153Z 26004KT 10SM SCT250 14/03 A3013 RMK AO2 SLP207 T01390033
Loading
Personal Weather Stations






























Interactive Weather Map New forecast layout! Learn more

10-Day Weather Forecast

Advertisements
Track Severe Weather on mobile